createdAt,value
2023-01-23T06:11:32.158Z,102025.92
2023-01-23T06:13:58.879Z,102024.34
2023-01-23T06:16:25.770Z,102024.18
2023-01-23T06:18:52.525Z,102021.41
2023-01-23T06:21:19.622Z,102018.69
2023-01-23T06:23:50.294Z,102018.92
2023-01-23T06:26:17.387Z,102017.20
2023-01-23T06:28:44.134Z,102017.34
2023-01-23T06:31:12.519Z,102025.46
2023-01-23T06:33:58.178Z,102026.70
2023-01-23T06:36:29.071Z,102031.28
2023-01-23T06:38:55.623Z,102027.27
2023-01-23T06:41:27.083Z,102031.57
2023-01-23T06:43:54.537Z,102030.21
2023-01-23T06:46:23.268Z,102029.91
2023-01-23T06:48:51.875Z,102032.07
2023-01-23T06:51:18.727Z,102038.02
2023-01-23T06:53:46.266Z,102043.02
2023-01-23T06:56:14.180Z,102050.02
2023-01-23T06:58:43.506Z,102046.86
2023-01-23T07:01:17.026Z,102054.54
2023-01-23T07:04:04.134Z,102053.61
2023-01-23T07:06:32.439Z,102059.64
2023-01-23T07:09:00.446Z,102058.30
2023-01-23T07:11:28.164Z,102059.57
2023-01-23T07:13:56.888Z,102057.08
2023-01-23T07:16:24.647Z,102062.73
2023-01-23T07:18:53.392Z,102063.05
2023-01-23T07:21:20.120Z,102061.65
2023-01-23T07:23:47.142Z,102062.52
2023-01-23T07:26:15.406Z,102065.14
2023-01-23T07:28:45.597Z,102062.49
2023-01-23T07:31:12.996Z,102065.62
2023-01-23T07:33:46.966Z,102063.37
2023-01-23T07:36:15.573Z,102063.84
2023-01-23T07:38:42.783Z,102069.34
2023-01-23T07:41:14.761Z,102067.11
2023-01-23T07:43:41.610Z,102069.75
2023-01-23T07:46:09.044Z,102070.23
2023-01-23T07:48:37.353Z,102072.73
2023-01-23T07:51:04.568Z,102075.38
2023-01-23T07:53:33.619Z,102077.69
2023-01-23T07:56:03.919Z,102078.20
2023-01-23T07:58:40.627Z,102080.09
2023-01-23T08:01:09.660Z,102082.45
2023-01-23T08:03:37.771Z,102083.55
2023-01-23T08:06:06.752Z,102090.98
2023-01-23T08:08:35.756Z,102092.73
2023-01-23T08:11:05.669Z,102094.90
2023-01-23T08:13:33.032Z,102099.31
2023-01-23T08:15:59.881Z,102101.88
2023-01-23T08:18:28.512Z,102099.89
2023-01-23T08:20:57.563Z,102104.23
2023-01-23T08:23:26.479Z,102102.81
2023-01-23T08:25:54.864Z,102108.58
2023-01-23T08:28:22.719Z,102107.86
2023-01-23T08:30:52.505Z,102109.23
2023-01-23T08:33:20.696Z,102111.86
2023-01-23T08:35:55.245Z,102111.56
2023-01-23T08:38:26.021Z,102111.31
2023-01-23T08:41:00.769Z,102108.92
2023-01-23T08:43:29.911Z,102110.30
2023-01-23T08:45:58.835Z,102110.20
2023-01-23T08:48:31.401Z,102110.42
2023-01-23T08:51:01.791Z,102104.34
2023-01-23T08:53:30.816Z,102105.00
2023-01-23T08:56:10.169Z,102105.64
2023-01-23T08:58:37.899Z,102104.05
2023-01-23T09:01:16.323Z,102106.98
2023-01-23T09:03:45.078Z,102105.38
2023-01-23T09:06:15.115Z,102107.66
2023-01-23T09:08:42.927Z,102108.25
2023-01-23T09:11:10.291Z,102104.83
2023-01-23T09:13:38.038Z,102108.21
2023-01-23T09:16:10.515Z,102103.52
2023-01-23T09:18:39.562Z,102102.94
2023-01-23T09:21:11.307Z,102105.73
2023-01-23T09:23:48.128Z,102106.64
2023-01-23T09:26:17.637Z,102107.59
2023-01-23T09:28:48.754Z,102103.33
2023-01-23T09:31:19.347Z,102098.84
2023-01-23T09:33:48.896Z,102095.75
2023-01-23T09:36:18.025Z,102093.27
2023-01-23T09:38:47.009Z,102097.15
2023-01-23T09:41:28.602Z,102096.75
2023-01-23T09:44:17.270Z,102100.27
2023-01-23T09:46:56.342Z,102096.83
2023-01-23T09:49:44.907Z,102096.85
2023-01-23T09:52:42.490Z,102098.52
2023-01-23T09:55:25.531Z,102092.52
2023-01-23T09:58:03.899Z,102091.64
2023-01-23T10:00:36.433Z,102089.08
2023-01-23T10:03:15.885Z,102089.16
2023-01-23T10:05:46.170Z,102084.77
2023-01-23T10:08:32.510Z,102086.92
2023-01-23T10:10:59.704Z,102087.47
2023-01-23T10:13:37.165Z,102093.75
2023-01-23T10:16:13.618Z,102095.56
2023-01-23T10:18:53.830Z,102093.07
2023-01-23T13:19:38.548Z,102070.55
2023-01-23T13:22:34.907Z,102067.01
2023-01-23T13:25:21.546Z,102064.23
2023-01-23T13:28:02.671Z,102068.25
2023-01-23T13:30:36.604Z,102068.73
2023-01-23T13:33:05.723Z,102069.73
2023-01-23T13:35:45.119Z,102069.34
2023-01-23T13:38:24.640Z,102074.63
2023-01-23T13:41:24.175Z,102068.33
2023-01-23T13:44:17.782Z,102072.70
2023-01-23T14:20:43.259Z,102079.37
2023-01-23T14:23:40.589Z,102076.45
2023-01-23T14:26:11.100Z,102074.90
2023-01-23T14:28:44.557Z,102076.11
2023-01-23T14:34:09.798Z,102075.52
2023-01-23T14:36:45.125Z,102075.71
2023-01-23T14:39:38.479Z,102076.69
2023-01-23T14:42:16.561Z,102081.35
2023-01-23T14:44:55.518Z,102081.02
2023-01-23T14:47:45.451Z,102078.62
2023-01-23T14:50:25.139Z,102078.77
2023-01-23T14:53:04.172Z,102076.23
2023-01-23T14:55:35.914Z,102073.66
2023-01-23T14:58:07.151Z,102073.44
2023-01-23T15:01:16.159Z,102072.14
2023-01-23T15:04:00.414Z,102068.16
2023-01-23T15:06:33.053Z,102073.60
2023-01-23T15:09:11.719Z,102069.52
2023-01-23T15:11:38.963Z,102068.20
2023-01-23T15:14:14.527Z,102073.46
2023-01-23T15:16:41.694Z,102074.31
2023-01-23T15:19:20.799Z,102075.05
2023-01-23T15:21:48.159Z,102077.03
2023-01-23T15:24:26.186Z,102084.34
2023-01-23T15:27:05.960Z,102085.34
2023-01-23T15:29:39.242Z,102087.75
2023-01-23T15:32:15.401Z,102087.78
2023-01-23T15:34:51.992Z,102088.23
2023-01-23T15:37:23.448Z,102091.23
2023-01-23T15:40:02.091Z,102095.41
2023-01-23T15:42:34.104Z,102096.55
2023-01-23T15:45:01.476Z,102098.70
2023-01-23T15:47:34.319Z,102099.00
2023-01-23T15:50:04.286Z,102098.64
2023-01-23T15:52:48.215Z,102104.19
2023-01-23T15:55:16.742Z,102108.02
2023-01-23T15:57:43.988Z,102104.98
2023-01-23T16:00:21.400Z,102109.99
2023-01-23T16:02:56.131Z,102109.90
2023-01-23T16:05:35.590Z,102106.52
2023-01-23T16:08:23.168Z,102108.88
2023-01-23T16:10:53.758Z,102111.05
2023-01-23T16:13:21.667Z,102108.73
2023-01-23T16:15:51.268Z,102107.95
2023-01-23T16:18:20.046Z,102106.90
2023-01-23T16:20:47.809Z,102105.43
2023-01-23T16:23:21.689Z,102102.76
2023-01-23T16:25:49.631Z,102108.77
2023-01-23T16:28:26.410Z,102109.67
2023-01-23T16:30:53.542Z,102105.97
2023-01-23T16:33:22.291Z,102106.43
2023-01-23T16:35:52.068Z,102106.59
2023-01-23T16:38:23.941Z,102113.69
2023-01-23T16:40:52.576Z,102119.13
2023-01-23T16:43:20.866Z,102117.18
2023-01-23T16:45:47.932Z,102118.73
2023-01-23T16:48:27.184Z,102117.43
2023-01-23T16:51:23.591Z,102117.55
2023-01-23T16:56:57.475Z,102117.13
2023-01-23T16:59:41.382Z,102121.24
2023-01-23T17:02:46.360Z,102121.42
2023-01-23T17:05:38.162Z,102121.12
2023-01-23T17:08:36.370Z,102122.80
2023-01-23T17:11:28.893Z,102127.23
2023-01-23T17:14:49.679Z,102130.35
2023-01-23T17:17:51.859Z,102131.77
2023-01-23T17:20:29.300Z,102138.67
2023-01-23T17:23:04.415Z,102137.65
2023-01-23T17:26:00.801Z,102136.98
2023-01-23T17:28:58.635Z,102137.30
2023-01-23T17:31:33.391Z,102136.02
2023-01-23T17:34:07.702Z,102136.59
2023-01-23T17:36:34.928Z,102136.06
2023-01-23T17:39:02.526Z,102136.69
2023-01-23T17:41:38.584Z,102135.10
2023-01-23T17:44:06.507Z,102137.66
2023-01-23T17:46:36.551Z,102137.30
2023-01-23T17:49:13.562Z,102138.45
2023-01-23T17:51:40.461Z,102137.54
2023-01-23T17:54:16.194Z,102136.79
2023-01-23T17:56:45.141Z,102135.77
2023-01-23T17:59:13.095Z,102131.34
